TKY78M LDZA-LMML
Flight info
| Callsign | TKY78M |
|---|---|
| Flight time | 1h 32m |
| Altitude | 40000 |
| Route | NIVES DCT KOREX DCT DIGOT DCT VAPUP/N0476F410 DCT EKMOT DCT IPKAM DCT PELEN DCT OBAXU DCT NELDA DCT DIRKA N982 GZO |
| Aircraft | A359/H-SDE2E3GHIJ3J4J5LM1ORWXY/LB1D1 |
Departure
| Time | 2026-05-03 20:27 |
|---|---|
| Airport | Zagreb Franjo Tuđman International Airport (LDZA) |
Arrival
| Time | 2026-05-03 21:59 |
|---|---|
| Airport | Malta International Airport (LMML) |
| Time | Latitude | Longitude | Altitude | Speed | Heading |
|---|---|---|---|---|---|
| 2026-05-03 20:15 | 45.74090 | 16.07697 | 365 ft | 0 kts | 136° |
| 2026-05-03 20:18 | 45.74079 | 16.07711 | 367 ft | 2 kts | 136° |
| 2026-05-03 20:18 | 45.74096 | 16.07689 | 364 ft | 3 kts | 136° |
| 2026-05-03 20:18 | 45.74112 | 16.07667 | 368 ft | 3 kts | 136° |
| 2026-05-03 20:19 | 45.74126 | 16.07649 | 371 ft | 3 kts | 137° |
| 2026-05-03 20:19 | 45.74141 | 16.07631 | 367 ft | 4 kts | 160° |
| 2026-05-03 20:19 | 45.74156 | 16.07626 | 366 ft | 4 kts | 195° |
| 2026-05-03 20:19 | 45.74172 | 16.07636 | 365 ft | 4 kts | 226° |
| 2026-05-03 20:20 | 45.74186 | 16.07659 | 369 ft | 4 kts | 226° |
| 2026-05-03 20:20 | 45.74186 | 16.07662 | 369 ft | 1 kts | 226° |
| 2026-05-03 20:22 | 45.74178 | 16.07649 | 366 ft | 4 kts | 230° |
| 2026-05-03 20:22 | 45.74142 | 16.07590 | 369 ft | 11 kts | 228° |
| 2026-05-03 20:23 | 45.74080 | 16.07489 | 368 ft | 15 kts | 236° |
| 2026-05-03 20:23 | 45.74103 | 16.07361 | 369 ft | 15 kts | 306° |
| 2026-05-03 20:23 | 45.74179 | 16.07261 | 369 ft | 16 kts | 319° |
| 2026-05-03 20:23 | 45.74197 | 16.07126 | 370 ft | 14 kts | 233° |
| 2026-05-03 20:24 | 45.74124 | 16.07013 | 367 ft | 17 kts | 227° |
| 2026-05-03 20:24 | 45.74037 | 16.06881 | 369 ft | 20 kts | 226° |
| 2026-05-03 20:24 | 45.73938 | 16.06731 | 369 ft | 22 kts | 226° |
| 2026-05-03 20:24 | 45.73828 | 16.06567 | 369 ft | 24 kts | 227° |
| 2026-05-03 20:25 | 45.73709 | 16.06384 | 372 ft | 26 kts | 227° |
| 2026-05-03 20:25 | 45.73579 | 16.06186 | 370 ft | 28 kts | 226° |
| 2026-05-03 20:25 | 45.73440 | 16.05976 | 369 ft | 30 kts | 226° |
| 2026-05-03 20:25 | 45.73295 | 16.05754 | 371 ft | 31 kts | 227° |
| 2026-05-03 20:26 | 45.73166 | 16.05558 | 372 ft | 27 kts | 227° |
| 2026-05-03 20:26 | 45.73106 | 16.05328 | 370 ft | 25 kts | 293° |
| 2026-05-03 20:26 | 45.73233 | 16.05260 | 375 ft | 18 kts | 47° |
| 2026-05-03 20:26 | 45.73324 | 16.05403 | 375 ft | 29 kts | 46° |
| 2026-05-03 20:27 | 45.73647 | 16.05894 | 371 ft | 105 kts | 46° |
| 2026-05-03 20:27 | 45.74303 | 16.06888 | 381 ft | 166 kts | 46° |
| 2026-05-03 20:27 | 45.75116 | 16.08091 | 1116 ft | 166 kts | 47° |
| 2026-05-03 20:27 | 45.75836 | 16.09376 | 1846 ft | 172 kts | 69° |
| 2026-05-03 20:28 | 45.75881 | 16.11172 | 2145 ft | 197 kts | 112° |
| 2026-05-03 20:28 | 45.75300 | 16.13033 | 2729 ft | 213 kts | 116° |
| 2026-05-03 20:28 | 45.74783 | 16.15108 | 3385 ft | 231 kts | 107° |
| 2026-05-03 20:28 | 45.74431 | 16.17377 | 4208 ft | 242 kts | 101° |
| 2026-05-03 20:29 | 45.74171 | 16.19796 | 5078 ft | 250 kts | 97° |
| 2026-05-03 20:29 | 45.73962 | 16.22288 | 5980 ft | 254 kts | 95° |
| 2026-05-03 20:29 | 45.73770 | 16.24816 | 6632 ft | 257 kts | 95° |
| 2026-05-03 20:29 | 45.73586 | 16.27371 | 6935 ft | 259 kts | 94° |
| 2026-05-03 20:30 | 45.73282 | 16.29911 | 7000 ft | 261 kts | 108° |
| 2026-05-03 20:30 | 45.72327 | 16.32098 | 7008 ft | 261 kts | 133° |
| 2026-05-03 20:30 | 45.71015 | 16.33906 | 7000 ft | 263 kts | 137° |
| 2026-05-03 20:30 | 45.69670 | 16.35625 | 7058 ft | 262 kts | 139° |
| 2026-05-03 20:31 | 45.68095 | 16.36946 | 7540 ft | 266 kts | 163° |
| 2026-05-03 20:31 | 45.66265 | 16.37043 | 8457 ft | 269 kts | 192° |
| 2026-05-03 20:31 | 45.64587 | 16.35789 | 9218 ft | 281 kts | 222° |
| 2026-05-03 20:31 | 45.63212 | 16.33744 | 10128 ft | 289 kts | 228° |
| 2026-05-03 20:32 | 45.61863 | 16.31583 | 11027 ft | 295 kts | 227° |
| 2026-05-03 20:32 | 45.60466 | 16.29391 | 11915 ft | 301 kts | 226° |
| 2026-05-03 20:32 | 45.59037 | 16.27176 | 12829 ft | 306 kts | 226° |
| 2026-05-03 20:32 | 45.57578 | 16.24930 | 13737 ft | 311 kts | 226° |
| 2026-05-03 20:33 | 45.56113 | 16.22686 | 14553 ft | 315 kts | 226° |
| 2026-05-03 20:33 | 45.54602 | 16.20384 | 15365 ft | 319 kts | 226° |
| 2026-05-03 20:33 | 45.53073 | 16.18056 | 16155 ft | 323 kts | 227° |
| 2026-05-03 20:33 | 45.51527 | 16.15704 | 16957 ft | 327 kts | 227° |
| 2026-05-03 20:34 | 45.49961 | 16.13324 | 17774 ft | 331 kts | 227° |
| 2026-05-03 20:34 | 45.48373 | 16.10916 | 18559 ft | 335 kts | 227° |
| 2026-05-03 20:34 | 45.46768 | 16.08484 | 19265 ft | 339 kts | 227° |
| 2026-05-03 20:34 | 45.45145 | 16.06023 | 19690 ft | 353 kts | 227° |
| 2026-05-03 20:35 | 45.43420 | 16.03414 | 20035 ft | 370 kts | 227° |
| 2026-05-03 20:35 | 45.41615 | 16.00687 | 20384 ft | 386 kts | 227° |
| 2026-05-03 20:35 | 45.39741 | 15.97860 | 20821 ft | 399 kts | 227° |
| 2026-05-03 20:35 | 45.37818 | 15.94964 | 21456 ft | 405 kts | 227° |
| 2026-05-03 20:36 | 45.35855 | 15.92047 | 22156 ft | 410 kts | 226° |
| 2026-05-03 20:36 | 45.33600 | 15.89529 | 22865 ft | 416 kts | 211° |
| 2026-05-03 20:36 | 45.30920 | 15.87969 | 23591 ft | 421 kts | 193° |
| 2026-05-03 20:36 | 45.27998 | 15.87642 | 24196 ft | 425 kts | 175° |
| 2026-05-03 20:37 | 45.25150 | 15.88584 | 24728 ft | 430 kts | 159° |
| 2026-05-03 20:37 | 45.22321 | 15.90028 | 25241 ft | 436 kts | 160° |
| 2026-05-03 20:37 | 45.19366 | 15.91088 | 25775 ft | 441 kts | 171° |
| 2026-05-03 20:37 | 45.16286 | 15.91308 | 26320 ft | 446 kts | 184° |
| 2026-05-03 20:38 | 45.13227 | 15.90566 | 26874 ft | 448 kts | 198° |
| 2026-05-03 20:38 | 45.10294 | 15.89042 | 27422 ft | 452 kts | 204° |
| 2026-05-03 20:38 | 45.07364 | 15.87347 | 27973 ft | 457 kts | 203° |
| 2026-05-03 20:38 | 45.04369 | 15.85780 | 28512 ft | 462 kts | 200° |
| 2026-05-03 20:39 | 45.01286 | 15.84423 | 29036 ft | 467 kts | 198° |
| 2026-05-03 20:39 | 44.98167 | 15.83264 | 29532 ft | 472 kts | 195° |
| 2026-05-03 20:39 | 44.94947 | 15.82212 | 30013 ft | 478 kts | 194° |
| 2026-05-03 20:39 | 44.91676 | 15.81221 | 30448 ft | 482 kts | 194° |
| 2026-05-03 20:40 | 44.88382 | 15.80254 | 30881 ft | 486 kts | 193° |
| 2026-05-03 20:40 | 44.85061 | 15.79281 | 31314 ft | 489 kts | 194° |
| 2026-05-03 20:40 | 44.81726 | 15.78296 | 31751 ft | 492 kts | 194° |
| 2026-05-03 20:40 | 44.78369 | 15.77293 | 32165 ft | 494 kts | 194° |
| 2026-05-03 20:41 | 44.74997 | 15.76286 | 32562 ft | 497 kts | 194° |
| 2026-05-03 20:41 | 44.71632 | 15.75348 | 32952 ft | 500 kts | 193° |
| 2026-05-03 20:41 | 44.68205 | 15.74445 | 33357 ft | 503 kts | 192° |
| 2026-05-03 20:41 | 44.64754 | 15.73553 | 33743 ft | 505 kts | 192° |
| 2026-05-03 20:42 | 44.61284 | 15.72657 | 34094 ft | 508 kts | 192° |
| 2026-05-03 20:42 | 44.57807 | 15.71751 | 34408 ft | 510 kts | 192° |
| 2026-05-03 20:42 | 44.54315 | 15.70835 | 34758 ft | 510 kts | 193° |
| 2026-05-03 20:42 | 44.50834 | 15.69916 | 35227 ft | 508 kts | 193° |
| 2026-05-03 20:43 | 44.47359 | 15.68998 | 35680 ft | 506 kts | 193° |
| 2026-05-03 20:43 | 44.43952 | 15.68096 | 36087 ft | 505 kts | 193° |
| 2026-05-03 20:43 | 44.40500 | 15.67181 | 36490 ft | 504 kts | 193° |
| 2026-05-03 20:43 | 44.37059 | 15.66256 | 36867 ft | 503 kts | 194° |
| 2026-05-03 20:44 | 44.33647 | 15.65161 | 37246 ft | 502 kts | 197° |
| 2026-05-03 20:44 | 44.30278 | 15.63939 | 37626 ft | 500 kts | 198° |
| 2026-05-03 20:44 | 44.26919 | 15.62675 | 37999 ft | 499 kts | 198° |
| 2026-05-03 20:44 | 44.23567 | 15.61416 | 38372 ft | 498 kts | 198° |
| 2026-05-03 20:45 | 44.20214 | 15.60181 | 38722 ft | 498 kts | 197° |
| 2026-05-03 20:45 | 44.16910 | 15.58986 | 38996 ft | 497 kts | 197° |
| 2026-05-03 20:45 | 44.13560 | 15.57795 | 39255 ft | 497 kts | 197° |
| 2026-05-03 20:45 | 44.10208 | 15.56614 | 39500 ft | 497 kts | 197° |
| 2026-05-03 20:46 | 44.06856 | 15.55440 | 39743 ft | 497 kts | 197° |
| 2026-05-03 20:46 | 44.03504 | 15.54268 | 39981 ft | 497 kts | 197° |
| 2026-05-03 20:46 | 44.00143 | 15.53094 | 40090 ft | 500 kts | 197° |
| 2026-05-03 20:47 | 43.93385 | 15.50736 | 40100 ft | 501 kts | 197° |
| 2026-05-03 20:47 | 43.86676 | 15.48399 | 40099 ft | 501 kts | 197° |
| 2026-05-03 20:48 | 43.79914 | 15.46049 | 40099 ft | 501 kts | 197° |
| 2026-05-03 20:48 | 43.73145 | 15.43701 | 40098 ft | 502 kts | 197° |
| 2026-05-03 20:49 | 43.66372 | 15.41357 | 40095 ft | 502 kts | 197° |
| 2026-05-03 20:49 | 43.59644 | 15.39034 | 40100 ft | 502 kts | 197° |
| 2026-05-03 20:50 | 43.52861 | 15.36697 | 40099 ft | 503 kts | 197° |
| 2026-05-03 20:50 | 43.46070 | 15.34363 | 40106 ft | 503 kts | 197° |
| 2026-05-03 20:51 | 43.39275 | 15.32033 | 40106 ft | 503 kts | 197° |
| 2026-05-03 20:51 | 43.32528 | 15.29725 | 40147 ft | 503 kts | 197° |
| 2026-05-03 20:51 | 43.29127 | 15.28563 | 40380 ft | 502 kts | 197° |
| 2026-05-03 20:52 | 43.25743 | 15.27409 | 40676 ft | 500 kts | 197° |
| 2026-05-03 20:52 | 43.22369 | 15.26261 | 40948 ft | 499 kts | 197° |
| 2026-05-03 20:52 | 43.18993 | 15.25111 | 41095 ft | 501 kts | 197° |
| 2026-05-03 20:53 | 43.12205 | 15.22803 | 41113 ft | 503 kts | 197° |
| 2026-05-03 20:53 | 43.05463 | 15.20518 | 41115 ft | 503 kts | 197° |
| 2026-05-03 20:54 | 42.99795 | 15.18724 | 41113 ft | 503 kts | 195° |
| 2026-05-03 20:54 | 42.88347 | 15.15433 | 41114 ft | 504 kts | 195° |
| 2026-05-03 20:55 | 42.81534 | 15.13452 | 41111 ft | 504 kts | 195° |
| 2026-05-03 20:55 | 42.74677 | 15.11439 | 41111 ft | 504 kts | 195° |
| 2026-05-03 20:56 | 42.67819 | 15.09424 | 41118 ft | 504 kts | 195° |
| 2026-05-03 20:56 | 42.60961 | 15.07415 | 41116 ft | 505 kts | 195° |
| 2026-05-03 20:57 | 42.55253 | 15.05747 | 41110 ft | 505 kts | 195° |
| 2026-05-03 20:57 | 42.47275 | 15.03422 | 41110 ft | 505 kts | 195° |
| 2026-05-03 20:58 | 42.40398 | 15.01422 | 41112 ft | 505 kts | 195° |
| 2026-05-03 20:58 | 42.34686 | 14.99765 | 41107 ft | 505 kts | 195° |
| 2026-05-03 20:59 | 42.27809 | 14.97773 | 41105 ft | 505 kts | 195° |
| 2026-05-03 20:59 | 42.19814 | 14.95464 | 41112 ft | 506 kts | 195° |
| 2026-05-03 21:00 | 42.15212 | 14.94137 | 41115 ft | 506 kts | 195° |
| 2026-05-03 21:00 | 42.07203 | 14.91833 | 41115 ft | 506 kts | 195° |
| 2026-05-03 21:01 | 42.00313 | 14.89855 | 41123 ft | 507 kts | 195° |
| 2026-05-03 21:01 | 41.93420 | 14.87881 | 41126 ft | 507 kts | 195° |
| 2026-05-03 21:02 | 41.86523 | 14.85910 | 41129 ft | 507 kts | 195° |
| 2026-05-03 21:02 | 41.79668 | 14.83957 | 41133 ft | 507 kts | 195° |
| 2026-05-03 21:03 | 41.72775 | 14.81995 | 41136 ft | 507 kts | 195° |
| 2026-05-03 21:03 | 41.65879 | 14.80024 | 41145 ft | 506 kts | 196° |
| 2026-05-03 21:04 | 41.59021 | 14.77879 | 41150 ft | 506 kts | 197° |
| 2026-05-03 21:04 | 41.52230 | 14.75699 | 41158 ft | 505 kts | 197° |
| 2026-05-03 21:05 | 41.45389 | 14.73532 | 41157 ft | 505 kts | 197° |
| 2026-05-03 21:05 | 41.38541 | 14.71387 | 41158 ft | 505 kts | 197° |
| 2026-05-03 21:06 | 41.31691 | 14.69253 | 41162 ft | 505 kts | 197° |
| 2026-05-03 21:06 | 41.24895 | 14.67141 | 41165 ft | 505 kts | 197° |
| 2026-05-03 21:07 | 41.17985 | 14.65364 | 41170 ft | 509 kts | 188° |
| 2026-05-03 21:07 | 41.10923 | 14.64671 | 41168 ft | 510 kts | 187° |
| 2026-05-03 21:08 | 41.03842 | 14.64177 | 41172 ft | 510 kts | 186° |
| 2026-05-03 21:08 | 40.96803 | 14.63706 | 41170 ft | 509 kts | 186° |
| 2026-05-03 21:09 | 40.89723 | 14.63211 | 41177 ft | 509 kts | 187° |
| 2026-05-03 21:09 | 40.82646 | 14.62700 | 41169 ft | 509 kts | 187° |
| 2026-05-03 21:10 | 40.75575 | 14.62186 | 41173 ft | 509 kts | 187° |
| 2026-05-03 21:10 | 40.68546 | 14.61681 | 41176 ft | 509 kts | 187° |
| 2026-05-03 21:11 | 40.61485 | 14.61176 | 41178 ft | 508 kts | 187° |
| 2026-05-03 21:11 | 40.54423 | 14.60672 | 41176 ft | 508 kts | 187° |
| 2026-05-03 21:12 | 40.47359 | 14.60168 | 41175 ft | 508 kts | 187° |
| 2026-05-03 21:12 | 40.40341 | 14.59668 | 41176 ft | 508 kts | 187° |
| 2026-05-03 21:13 | 40.33284 | 14.59167 | 41179 ft | 508 kts | 187° |
| 2026-05-03 21:13 | 40.26221 | 14.58666 | 41175 ft | 508 kts | 187° |
| 2026-05-03 21:14 | 40.19157 | 14.58166 | 41181 ft | 508 kts | 187° |
| 2026-05-03 21:14 | 40.12087 | 14.57667 | 41184 ft | 508 kts | 187° |
| 2026-05-03 21:15 | 40.05073 | 14.57173 | 41195 ft | 508 kts | 187° |
| 2026-05-03 21:15 | 39.98006 | 14.56676 | 41193 ft | 508 kts | 187° |
| 2026-05-03 21:16 | 39.90938 | 14.56180 | 41190 ft | 509 kts | 187° |
| 2026-05-03 21:16 | 39.83871 | 14.55685 | 41193 ft | 509 kts | 187° |
| 2026-05-03 21:17 | 39.76847 | 14.55194 | 41188 ft | 509 kts | 187° |
| 2026-05-03 21:17 | 39.69774 | 14.54701 | 41195 ft | 509 kts | 187° |
| 2026-05-03 21:18 | 39.62699 | 14.54209 | 41191 ft | 509 kts | 187° |
| 2026-05-03 21:18 | 39.55623 | 14.53718 | 41191 ft | 509 kts | 187° |
| 2026-05-03 21:19 | 39.48594 | 14.53231 | 41196 ft | 509 kts | 187° |
| 2026-05-03 21:19 | 39.41516 | 14.52741 | 41193 ft | 509 kts | 187° |
| 2026-05-03 21:20 | 39.34443 | 14.52252 | 41197 ft | 509 kts | 187° |
| 2026-05-03 21:20 | 39.27368 | 14.51765 | 41197 ft | 509 kts | 187° |
| 2026-05-03 21:21 | 39.20293 | 14.51279 | 41201 ft | 509 kts | 187° |
| 2026-05-03 21:21 | 39.13263 | 14.50797 | 41201 ft | 509 kts | 187° |
| 2026-05-03 21:22 | 39.06191 | 14.50312 | 41200 ft | 509 kts | 187° |
| 2026-05-03 21:22 | 38.99114 | 14.49829 | 41204 ft | 509 kts | 187° |
| 2026-05-03 21:23 | 38.92040 | 14.49346 | 41200 ft | 509 kts | 187° |
| 2026-05-03 21:23 | 38.85007 | 14.48868 | 41202 ft | 509 kts | 187° |
| 2026-05-03 21:24 | 38.77935 | 14.48387 | 41206 ft | 509 kts | 187° |
| 2026-05-03 21:24 | 38.70867 | 14.47908 | 41203 ft | 509 kts | 187° |
| 2026-05-03 21:25 | 38.63794 | 14.47430 | 41204 ft | 509 kts | 187° |
| 2026-05-03 21:25 | 38.56776 | 14.46956 | 41204 ft | 508 kts | 187° |
| 2026-05-03 21:26 | 38.49730 | 14.46481 | 41202 ft | 508 kts | 187° |
| 2026-05-03 21:26 | 38.42675 | 14.46007 | 41202 ft | 507 kts | 187° |
| 2026-05-03 21:27 | 38.35628 | 14.45534 | 41204 ft | 507 kts | 187° |
| 2026-05-03 21:27 | 38.28621 | 14.45143 | 41202 ft | 508 kts | 186° |
| 2026-05-03 21:28 | 38.21558 | 14.45002 | 41204 ft | 508 kts | 185° |
| 2026-05-03 21:28 | 38.14500 | 14.44885 | 41205 ft | 507 kts | 185° |
| 2026-05-03 21:29 | 38.07453 | 14.44729 | 41206 ft | 506 kts | 186° |
| 2026-05-03 21:29 | 38.00456 | 14.44553 | 41209 ft | 506 kts | 186° |
| 2026-05-03 21:30 | 37.93421 | 14.44371 | 41204 ft | 505 kts | 186° |
| 2026-05-03 21:30 | 37.86398 | 14.44191 | 41205 ft | 505 kts | 186° |
| 2026-05-03 21:31 | 37.79377 | 14.44012 | 41204 ft | 504 kts | 186° |
| 2026-05-03 21:31 | 37.72356 | 14.43836 | 41210 ft | 504 kts | 186° |
| 2026-05-03 21:32 | 37.65396 | 14.43663 | 41205 ft | 503 kts | 186° |
| 2026-05-03 21:32 | 37.58400 | 14.43488 | 41206 ft | 503 kts | 186° |
| 2026-05-03 21:33 | 37.51414 | 14.43314 | 41173 ft | 502 kts | 186° |
| 2026-05-03 21:33 | 37.47925 | 14.43227 | 40924 ft | 500 kts | 186° |
| 2026-05-03 21:33 | 37.44448 | 14.43140 | 40676 ft | 500 kts | 186° |
| 2026-05-03 21:34 | 37.40971 | 14.43053 | 40301 ft | 499 kts | 186° |
| 2026-05-03 21:34 | 37.37543 | 14.42967 | 39631 ft | 500 kts | 186° |
| 2026-05-03 21:34 | 37.34063 | 14.42879 | 38998 ft | 501 kts | 186° |
| 2026-05-03 21:34 | 37.30579 | 14.42791 | 38267 ft | 501 kts | 186° |
| 2026-05-03 21:35 | 37.27096 | 14.42704 | 37602 ft | 500 kts | 186° |
| 2026-05-03 21:35 | 37.23631 | 14.42618 | 36938 ft | 499 kts | 186° |
| 2026-05-03 21:35 | 37.20162 | 14.42531 | 36264 ft | 498 kts | 186° |
| 2026-05-03 21:35 | 37.16702 | 14.42340 | 35541 ft | 497 kts | 188° |
| 2026-05-03 21:36 | 37.13260 | 14.42015 | 34800 ft | 497 kts | 189° |
| 2026-05-03 21:36 | 37.09853 | 14.41639 | 33992 ft | 500 kts | 189° |
| 2026-05-03 21:36 | 37.06380 | 14.41248 | 33131 ft | 502 kts | 189° |
| 2026-05-03 21:36 | 37.02913 | 14.40875 | 32570 ft | 497 kts | 189° |
| 2026-05-03 21:37 | 36.99480 | 14.40526 | 32009 ft | 494 kts | 188° |
| 2026-05-03 21:37 | 36.96065 | 14.40194 | 31440 ft | 490 kts | 188° |
| 2026-05-03 21:37 | 36.92678 | 14.39873 | 30864 ft | 488 kts | 188° |
| 2026-05-03 21:37 | 36.89296 | 14.39557 | 30286 ft | 485 kts | 188° |
| 2026-05-03 21:38 | 36.85958 | 14.39119 | 29657 ft | 479 kts | 193° |
| 2026-05-03 21:38 | 36.82724 | 14.38466 | 29081 ft | 475 kts | 194° |
| 2026-05-03 21:38 | 36.79482 | 14.37760 | 28534 ft | 470 kts | 194° |
| 2026-05-03 21:38 | 36.76290 | 14.37037 | 27976 ft | 466 kts | 195° |
| 2026-05-03 21:39 | 36.73117 | 14.36305 | 27433 ft | 461 kts | 195° |
| 2026-05-03 21:39 | 36.69972 | 14.35576 | 26885 ft | 458 kts | 195° |
| 2026-05-03 21:39 | 36.66854 | 14.34855 | 26343 ft | 454 kts | 195° |
| 2026-05-03 21:39 | 36.63758 | 14.34143 | 25798 ft | 451 kts | 195° |
| 2026-05-03 21:40 | 36.60683 | 14.33439 | 25255 ft | 447 kts | 195° |
| 2026-05-03 21:40 | 36.57673 | 14.32752 | 24717 ft | 445 kts | 195° |
| 2026-05-03 21:40 | 36.54641 | 14.32062 | 24168 ft | 442 kts | 195° |
| 2026-05-03 21:40 | 36.51624 | 14.31376 | 23588 ft | 439 kts | 195° |
| 2026-05-03 21:41 | 36.48632 | 14.30696 | 22985 ft | 435 kts | 194° |
| 2026-05-03 21:41 | 36.45671 | 14.30022 | 22422 ft | 431 kts | 194° |
| 2026-05-03 21:41 | 36.42738 | 14.29355 | 21872 ft | 426 kts | 194° |
| 2026-05-03 21:41 | 36.39837 | 14.28694 | 21304 ft | 422 kts | 194° |
| 2026-05-03 21:42 | 36.36963 | 14.28041 | 20758 ft | 418 kts | 194° |
| 2026-05-03 21:42 | 36.34114 | 14.27393 | 20214 ft | 415 kts | 194° |
| 2026-05-03 21:42 | 36.31286 | 14.26751 | 19654 ft | 412 kts | 194° |
| 2026-05-03 21:42 | 36.28482 | 14.26115 | 19108 ft | 409 kts | 193° |
| 2026-05-03 21:43 | 36.25726 | 14.25490 | 18566 ft | 406 kts | 193° |
| 2026-05-03 21:43 | 36.22956 | 14.24864 | 17961 ft | 403 kts | 193° |
| 2026-05-03 21:43 | 36.20207 | 14.24243 | 17413 ft | 399 kts | 193° |
| 2026-05-03 21:43 | 36.17495 | 14.23631 | 16866 ft | 394 kts | 193° |
| 2026-05-03 21:44 | 36.14809 | 14.23025 | 16335 ft | 390 kts | 193° |
| 2026-05-03 21:44 | 36.12152 | 14.22425 | 15803 ft | 386 kts | 193° |
| 2026-05-03 21:44 | 36.09521 | 14.21832 | 15283 ft | 382 kts | 193° |
| 2026-05-03 21:44 | 36.06951 | 14.21252 | 14768 ft | 379 kts | 192° |
| 2026-05-03 21:45 | 36.04357 | 14.20711 | 14197 ft | 378 kts | 189° |
| 2026-05-03 21:45 | 36.01731 | 14.20359 | 13461 ft | 380 kts | 187° |
| 2026-05-03 21:45 | 35.99111 | 14.20093 | 12899 ft | 375 kts | 186° |
| 2026-05-03 21:45 | 35.96529 | 14.19877 | 12369 ft | 370 kts | 185° |
| 2026-05-03 21:46 | 35.93980 | 14.19684 | 11853 ft | 364 kts | 185° |
| 2026-05-03 21:46 | 35.91471 | 14.19498 | 11335 ft | 359 kts | 185° |
| 2026-05-03 21:46 | 35.88996 | 14.19583 | 10919 ft | 352 kts | 172° |
| 2026-05-03 21:46 | 35.86712 | 14.20464 | 10791 ft | 338 kts | 154° |
| 2026-05-03 21:47 | 35.84826 | 14.22011 | 10659 ft | 324 kts | 142° |
| 2026-05-03 21:47 | 35.83159 | 14.23792 | 10540 ft | 310 kts | 137° |
| 2026-05-03 21:47 | 35.81657 | 14.25620 | 10419 ft | 298 kts | 134° |
| 2026-05-03 21:47 | 35.80243 | 14.27439 | 10174 ft | 291 kts | 133° |
| 2026-05-03 21:48 | 35.78854 | 14.29248 | 9822 ft | 290 kts | 133° |
| 2026-05-03 21:48 | 35.77446 | 14.31069 | 9502 ft | 296 kts | 134° |
| 2026-05-03 21:48 | 35.76020 | 14.32895 | 9179 ft | 295 kts | 133° |
| 2026-05-03 21:48 | 35.74678 | 14.34798 | 8874 ft | 294 kts | 129° |
| 2026-05-03 21:49 | 35.73393 | 14.36701 | 8558 ft | 292 kts | 129° |
| 2026-05-03 21:49 | 35.72096 | 14.38607 | 8269 ft | 290 kts | 130° |
| 2026-05-03 21:49 | 35.70798 | 14.40492 | 7966 ft | 287 kts | 130° |
| 2026-05-03 21:49 | 35.69509 | 14.42353 | 7668 ft | 285 kts | 130° |
| 2026-05-03 21:50 | 35.68225 | 14.44199 | 7365 ft | 283 kts | 130° |
| 2026-05-03 21:50 | 35.66952 | 14.46026 | 7070 ft | 280 kts | 130° |
| 2026-05-03 21:50 | 35.65688 | 14.47835 | 6759 ft | 278 kts | 130° |
| 2026-05-03 21:50 | 35.64435 | 14.49629 | 6467 ft | 275 kts | 130° |
| 2026-05-03 21:51 | 35.63202 | 14.51389 | 6258 ft | 267 kts | 130° |
| 2026-05-03 21:51 | 35.62033 | 14.53057 | 6123 ft | 255 kts | 130° |
| 2026-05-03 21:51 | 35.60895 | 14.54680 | 5939 ft | 247 kts | 130° |
| 2026-05-03 21:51 | 35.59859 | 14.56344 | 5693 ft | 245 kts | 119° |
| 2026-05-03 21:52 | 35.59367 | 14.58306 | 5442 ft | 242 kts | 92° |
| 2026-05-03 21:52 | 35.59699 | 14.60308 | 5212 ft | 241 kts | 65° |
| 2026-05-03 21:52 | 35.60698 | 14.61924 | 5056 ft | 234 kts | 47° |
| 2026-05-03 21:52 | 35.61843 | 14.63294 | 4922 ft | 225 kts | 46° |
| 2026-05-03 21:53 | 35.62952 | 14.64593 | 4790 ft | 216 kts | 46° |
| 2026-05-03 21:53 | 35.64011 | 14.65855 | 4649 ft | 209 kts | 46° |
| 2026-05-03 21:53 | 35.65046 | 14.67102 | 4452 ft | 208 kts | 46° |
| 2026-05-03 21:53 | 35.66093 | 14.68288 | 4244 ft | 208 kts | 39° |
| 2026-05-03 21:54 | 35.67432 | 14.68965 | 4029 ft | 213 kts | 6° |
| 2026-05-03 21:54 | 35.68856 | 14.68569 | 3848 ft | 212 kts | 328° |
| 2026-05-03 21:54 | 35.69948 | 14.67431 | 3783 ft | 201 kts | 315° |
| 2026-05-03 21:54 | 35.70883 | 14.66236 | 3757 ft | 186 kts | 314° |
| 2026-05-03 21:55 | 35.71759 | 14.65108 | 3575 ft | 180 kts | 315° |
| 2026-05-03 21:55 | 35.72629 | 14.64020 | 3329 ft | 177 kts | 315° |
| 2026-05-03 21:55 | 35.73495 | 14.62946 | 3061 ft | 176 kts | 314° |
| 2026-05-03 21:55 | 35.74354 | 14.61878 | 2808 ft | 174 kts | 314° |
| 2026-05-03 21:56 | 35.75186 | 14.60845 | 2555 ft | 171 kts | 313° |
| 2026-05-03 21:56 | 35.76014 | 14.59818 | 2345 ft | 167 kts | 313° |
| 2026-05-03 21:56 | 35.76819 | 14.58820 | 2121 ft | 162 kts | 313° |
| 2026-05-03 21:56 | 35.77605 | 14.57846 | 1901 ft | 158 kts | 313° |
| 2026-05-03 21:57 | 35.78365 | 14.56903 | 1706 ft | 151 kts | 313° |
| 2026-05-03 21:57 | 35.79084 | 14.56011 | 1479 ft | 142 kts | 313° |
| 2026-05-03 21:57 | 35.79757 | 14.55176 | 1303 ft | 133 kts | 313° |
| 2026-05-03 21:57 | 35.80401 | 14.54377 | 1140 ft | 131 kts | 313° |
| 2026-05-03 21:58 | 35.81042 | 14.53581 | 964 ft | 132 kts | 312° |
| 2026-05-03 21:58 | 35.81691 | 14.52776 | 779 ft | 135 kts | 312° |
| 2026-05-03 21:58 | 35.82351 | 14.51967 | 582 ft | 132 kts | 314° |
| 2026-05-03 21:58 | 35.82987 | 14.51183 | 390 ft | 128 kts | 311° |
| 2026-05-03 21:59 | 35.83622 | 14.50390 | 280 ft | 132 kts | 313° |
| 2026-05-03 21:59 | 35.84213 | 14.49650 | 262 ft | 95 kts | 315° |
| 2026-05-03 21:59 | 35.84481 | 14.49318 | 265 ft | 31 kts | 315° |
| 2026-05-03 21:59 | 35.84631 | 14.49131 | 265 ft | 31 kts | 315° |
| 2026-05-03 22:00 | 35.84793 | 14.48986 | 265 ft | 18 kts | 352° |
| 2026-05-03 22:00 | 35.84883 | 14.48983 | 265 ft | 14 kts | 18° |
| 2026-05-03 22:00 | 35.84908 | 14.49080 | 267 ft | 14 kts | 118° |
| 2026-05-03 22:00 | 35.84930 | 14.49193 | 265 ft | 15 kts | 72° |
| 2026-05-03 22:01 | 35.84894 | 14.49315 | 265 ft | 17 kts | 131° |
| 2026-05-03 22:01 | 35.84807 | 14.49427 | 265 ft | 19 kts | 137° |
| 2026-05-03 22:01 | 35.84714 | 14.49520 | 265 ft | 13 kts | 166° |
| 2026-05-03 22:01 | 35.84672 | 14.49537 | 265 ft | 4 kts | 108° |
| 2026-05-03 22:02 | 35.84686 | 14.49571 | 265 ft | 3 kts | 33° |
| 2026-05-03 22:02 | 35.84716 | 14.49573 | 265 ft | 6 kts | 1° |
| 2026-05-03 22:02 | 35.84759 | 14.49573 | 265 ft | 5 kts | 360° |
| 2026-05-03 22:02 | 35.84767 | 14.49573 | 265 ft | 0 kts | 360° |